This is the latest recevied weather packets stored in our database for station/object IK5UIK-3. If no packets are shown the sender has not sent any weather packets the latest 10 day(s).
| Time | Temp. | Humidity | Pressure | Rain* | Wind** | Luminosity | Snow |
|---|---|---|---|---|---|---|---|
| 1788118766 | 24.44° C | 65% | 1006.6 hPa | 0 mm | - | - | - |
| 1788118582 | 24.44° C | 65% | 1006.6 hPa | 0 mm | - | - | - |
| 1788118468 | 24.44° C | 65% | 1006.5 hPa | 0 mm | - | - | - |
| 1788118222 | 24.44° C | 64% | 1006.4 hPa | 0 mm | - | - | - |
| 1788117862 | 25° C | 64% | 1006.4 hPa | 0 mm | - | - | - |
| 1788117502 | 25° C | 64% | 1006.4 hPa | 0 mm | - | - | - |
| 1788117264 | 25° C | 63% | 1006.3 hPa | 0 mm | - | - | - |
| 1788117142 | 25° C | 63% | 1006.3 hPa | 0 mm | - | - | - |
| 1788116782 | 25.56° C | 62% | 1006.2 hPa | 0 mm | - | - | - |
| 1788116666 | 25.56° C | 62% | 1006.2 hPa | 0 mm | - | - | - |
| 1788116422 | 25.56° C | 61% | 1006.2 hPa | 0 mm | - | - | - |
| 1788116364 | 25.56° C | 61% | 1006.2 hPa | 0 mm | - | - | - |
| 1788116062 | 25.56° C | 61% | 1006.1 hPa | 0 mm | - | - | - |
| 1788115906 | 26.11° C | 61% | 1006.1 hPa | 0 mm | - | - | - |
| 1788115702 | 26.11° C | 60% | 1006.1 hPa | 0 mm | - | - | - |
| 1788115469 | 26.11° C | 60% | 1006 hPa | 0 mm | - | - | - |
| 1788115449 | 26.67° C | 60% | 1005.9 hPa | 0 mm | - | - | - |
| 1788115447 | 26.67° C | 59% | 1005.9 hPa | 0 mm | - | - | - |
| 1788115342 | 26.11° C | 60% | 1006 hPa | 0 mm | - | - | - |
| 1788115187 | 27.22° C | 57% | 1005.7 hPa | 0 mm | - | - | - |
| 1788114982 | 26.67° C | 59% | 1005.9 hPa | 0 mm | - | - | - |
| 1788114622 | 26.67° C | 58% | 1005.9 hPa | 0 mm | - | - | - |
| 1788114262 | 27.22° C | 57% | 1005.8 hPa | 0 mm | - | - | - |
| 1788113902 | 27.78° C | 57% | 1005.8 hPa | 0 mm | - | - | - |
| 1788113902 | 28.33° C | 55% | 1005.7 hPa | 0 mm | - | - | - |
* Rain latest hour (hover to see other rain measurements)
** Current wind speed in m/s (hover to see current wind gust speed)